createdAt,value
2023-05-22T00:00:20.882Z,92.43
2023-05-22T00:02:50.974Z,93.05
2023-05-22T00:05:20.865Z,94.06
2023-05-22T00:07:52.460Z,93.47
2023-05-22T00:10:22.366Z,93.44
2023-05-22T00:12:50.658Z,93.27
2023-05-22T00:15:19.122Z,93.47
2023-05-22T00:17:48.068Z,92.87
2023-05-22T00:20:16.664Z,93.51
2023-05-22T00:22:45.380Z,93.37
2023-05-22T00:25:14.060Z,93.36
2023-05-22T00:27:43.579Z,91.60
2023-05-22T00:30:14.511Z,92.04
2023-05-22T00:32:42.702Z,93.16
2023-05-22T00:35:11.474Z,92.64
2023-05-22T00:37:39.755Z,92.78
2023-05-22T00:40:10.179Z,93.34
2023-05-22T00:42:38.530Z,92.97
2023-05-22T00:45:11.203Z,92.46
2023-05-22T00:47:40.957Z,92.03
2023-05-22T00:50:11.673Z,91.71
2023-05-22T00:52:44.424Z,92.43
2023-05-22T00:55:13.593Z,93.21
2023-05-22T00:57:42.876Z,93.02
2023-05-22T01:00:16.974Z,93.36
2023-05-22T01:02:45.608Z,93.85
2023-05-22T01:05:18.351Z,93.54
2023-05-22T01:07:47.122Z,94.34
2023-05-22T01:10:15.084Z,94.06
2023-05-22T01:12:54.309Z,93.70
2023-05-22T01:15:32.526Z,93.64
2023-05-22T01:18:11.509Z,93.41
2023-05-22T01:20:45.319Z,93.65
2023-05-22T01:23:54.241Z,93.80
2023-05-22T01:26:38.903Z,93.85
2023-05-22T01:29:32.306Z,94.63
2023-05-22T01:32:03.488Z,92.90
2023-05-22T01:34:33.832Z,92.96
2023-05-22T01:37:03.334Z,94.19
2023-05-22T01:39:32.746Z,93.71
2023-05-22T01:42:01.077Z,93.61
2023-05-22T01:44:29.290Z,94.79
2023-05-22T01:47:00.854Z,95.55
2023-05-22T01:49:30.684Z,95.47
2023-05-22T01:52:04.658Z,95.54
2023-05-22T01:54:42.361Z,95.11
2023-05-22T01:57:17.401Z,94.43
2023-05-22T01:59:48.659Z,92.91
2023-05-22T02:02:20.202Z,92.76
2023-05-22T02:05:12.442Z,94.29
2023-05-22T02:07:44.947Z,94.82
2023-05-22T02:10:15.545Z,95.15
2023-05-22T02:12:44.156Z,95.10
2023-05-22T02:15:13.111Z,95.62
2023-05-22T02:17:41.848Z,95.53
2023-05-22T02:20:15.805Z,94.68
2023-05-22T02:22:47.455Z,94.85
2023-05-22T02:25:18.360Z,93.58
2023-05-22T02:27:48.099Z,93.45
2023-05-22T02:30:17.423Z,92.76
2023-05-22T02:32:48.863Z,93.63
2023-05-22T02:35:18.537Z,93.58
2023-05-22T02:37:46.676Z,94.27
2023-05-22T02:40:15.841Z,94.55
2023-05-22T02:42:43.977Z,95.17
2023-05-22T02:45:13.018Z,95.07
2023-05-22T02:47:42.644Z,96.09
2023-05-22T02:50:11.598Z,95.96
2023-05-22T02:52:41.000Z,95.29
2023-05-22T02:55:10.703Z,94.56
2023-05-22T02:57:39.176Z,93.82
2023-05-22T03:00:11.756Z,93.99
2023-05-22T03:02:40.160Z,94.37
2023-05-22T03:05:10.602Z,94.67
2023-05-22T03:07:40.235Z,95.20
2023-05-22T03:10:09.064Z,94.73
2023-05-22T03:12:37.268Z,94.53
2023-05-22T03:15:06.645Z,94.52
2023-05-22T03:17:35.956Z,94.17
2023-05-22T03:20:05.772Z,94.34
2023-05-22T03:22:34.851Z,94.67
2023-05-22T03:25:06.519Z,94.76
2023-05-22T03:27:34.623Z,95.38
2023-05-22T03:30:04.209Z,94.39
2023-05-22T03:32:37.508Z,93.46
2023-05-22T03:35:07.752Z,94.27
2023-05-22T03:37:36.393Z,94.40
2023-05-22T03:40:07.817Z,95.50
2023-05-22T03:42:36.416Z,95.65
2023-05-22T03:45:05.542Z,95.31
2023-05-22T03:47:34.337Z,94.91
2023-05-22T03:50:04.086Z,95.28
2023-05-22T03:52:32.607Z,94.69
2023-05-22T03:55:00.935Z,93.14
2023-05-22T03:57:30.868Z,92.37
2023-05-22T04:00:05.290Z,92.01
2023-05-22T04:02:45.422Z,92.49
2023-05-22T04:05:15.309Z,92.39
2023-05-22T04:07:45.054Z,92.39
2023-05-22T04:10:13.798Z,92.91
2023-05-22T04:12:43.267Z,92.20
2023-05-22T04:15:11.417Z,91.88
2023-05-22T04:17:42.403Z,91.79
2023-05-22T04:20:11.270Z,92.05
2023-05-22T04:22:41.350Z,91.97
2023-05-22T04:25:11.189Z,91.92
2023-05-22T04:27:39.042Z,91.87
2023-05-22T04:30:10.993Z,91.57
2023-05-22T04:32:41.197Z,91.73
2023-05-22T04:35:12.343Z,91.79
2023-05-22T04:37:42.433Z,91.47
2023-05-22T04:40:11.501Z,91.33
2023-05-22T04:42:40.611Z,90.24
2023-05-22T04:45:11.328Z,89.73
2023-05-22T04:47:42.022Z,89.89
2023-05-22T04:50:10.924Z,89.19
2023-05-22T04:52:38.977Z,89.33
2023-05-22T04:55:26.124Z,89.62
2023-05-22T04:58:13.339Z,94.04
2023-05-22T05:01:01.640Z,93.98
2023-05-22T05:03:30.556Z,94.48
2023-05-22T05:06:00.933Z,93.68
2023-05-22T05:08:29.350Z,94.12
2023-05-22T05:10:57.427Z,94.86
2023-05-22T05:13:25.835Z,93.20
2023-05-22T05:15:54.126Z,92.18
2023-05-22T05:18:23.928Z,91.93
2023-05-22T05:20:52.472Z,94.25
2023-05-22T05:23:21.052Z,92.11
2023-05-22T05:25:49.456Z,90.54
2023-05-22T05:28:17.812Z,89.29
2023-05-22T05:30:46.595Z,88.45
2023-05-22T05:33:32.904Z,88.06
2023-05-22T05:36:16.425Z,87.88
2023-05-22T05:38:46.892Z,87.00
2023-05-22T05:41:16.356Z,86.94
2023-05-22T05:43:46.715Z,86.75
2023-05-22T05:46:15.086Z,86.15
2023-05-22T05:48:46.407Z,85.56
2023-05-22T05:51:16.038Z,85.15
2023-05-22T05:53:45.208Z,83.85
2023-05-22T05:56:13.363Z,82.11
2023-05-22T05:58:41.502Z,81.92
2023-05-22T06:01:35.588Z,82.80
2023-05-22T06:04:09.332Z,81.49
2023-05-22T06:06:39.450Z,82.87
2023-05-22T06:09:17.070Z,81.80
2023-05-22T06:12:12.961Z,81.06
2023-05-22T06:14:44.968Z,78.62
2023-05-22T06:17:14.744Z,77.55
2023-05-22T06:19:45.801Z,79.47
2023-05-22T06:22:15.384Z,80.48
2023-05-22T06:24:46.144Z,72.78
2023-05-22T06:27:18.798Z,71.94
2023-05-22T06:29:47.597Z,71.58
2023-05-22T06:32:15.997Z,71.30
2023-05-22T06:34:48.841Z,70.99
2023-05-22T06:37:19.637Z,69.88
2023-05-22T06:39:49.828Z,68.54
2023-05-22T06:42:31.515Z,69.38
2023-05-22T06:45:32.520Z,68.13
2023-05-22T06:48:20.594Z,65.71
2023-05-22T06:51:15.232Z,55.52
2023-05-22T06:53:43.969Z,47.31
2023-05-22T06:56:16.492Z,45.62
2023-05-22T06:59:06.246Z,43.83
2023-05-22T07:01:55.486Z,40.72
2023-05-22T07:04:34.769Z,41.23
2023-05-22T07:07:10.515Z,38.05
2023-05-22T07:09:38.977Z,33.01
2023-05-22T07:12:08.563Z,38.19
2023-05-22T07:14:37.068Z,36.38
2023-05-22T07:17:05.295Z,34.53
2023-05-22T07:19:38.929Z,36.78
2023-05-22T07:22:06.983Z,36.84
2023-05-22T07:24:39.498Z,37.43
2023-05-22T07:27:09.188Z,36.54
2023-05-22T07:29:38.418Z,30.95
2023-05-22T07:32:09.648Z,30.13
2023-05-22T07:34:38.458Z,27.99
2023-05-22T07:37:10.773Z,26.52
2023-05-22T07:39:41.295Z,25.65
2023-05-22T07:42:10.781Z,25.37
2023-05-22T07:44:46.480Z,29.55
2023-05-22T07:47:14.619Z,33.09
2023-05-22T07:49:43.538Z,37.30
2023-05-22T07:52:13.118Z,39.99
2023-05-22T07:54:44.268Z,38.57
2023-05-22T07:57:14.296Z,34.80
2023-05-22T07:59:44.278Z,32.78
2023-05-22T08:02:12.583Z,33.37
2023-05-22T08:04:41.087Z,34.09
2023-05-22T08:07:09.458Z,35.27
2023-05-22T08:09:37.951Z,38.57
2023-05-22T08:12:09.344Z,36.04
2023-05-22T08:14:37.954Z,37.55
2023-05-22T08:17:06.585Z,39.46
2023-05-22T08:19:34.837Z,35.20
2023-05-22T08:22:03.376Z,34.00
2023-05-22T08:24:31.945Z,36.89
2023-05-22T08:27:01.107Z,37.66
2023-05-22T08:29:30.959Z,38.17
2023-05-22T08:31:58.972Z,36.52
2023-05-22T08:34:28.480Z,38.54
2023-05-22T08:36:56.612Z,42.45
2023-05-22T08:39:24.892Z,43.67
2023-05-22T08:41:53.788Z,46.05
2023-05-22T08:44:22.608Z,43.70
2023-05-22T08:46:53.740Z,44.37
2023-05-22T08:49:24.230Z,46.81
2023-05-22T08:51:57.648Z,48.88
2023-05-22T08:54:27.973Z,47.24
2023-05-22T08:56:57.611Z,44.63
2023-05-22T08:59:26.487Z,41.51
2023-05-22T09:01:58.107Z,41.16
2023-05-22T09:04:28.325Z,42.55
2023-05-22T09:06:56.886Z,41.79
2023-05-22T09:09:25.178Z,39.49
2023-05-22T09:11:56.137Z,39.12
2023-05-22T09:14:25.201Z,39.90
2023-05-22T09:16:55.100Z,39.80
2023-05-22T09:19:25.191Z,39.27
2023-05-22T09:21:54.943Z,37.50
2023-05-22T09:24:23.972Z,41.62
2023-05-22T09:26:53.024Z,37.41
2023-05-22T09:29:22.554Z,38.95
2023-05-22T09:31:50.963Z,41.12
2023-05-22T09:34:19.490Z,39.59
2023-05-22T09:36:50.129Z,39.01
2023-05-22T09:39:18.405Z,37.57
2023-05-22T09:41:46.615Z,38.54
2023-05-22T09:44:15.282Z,36.38
2023-05-22T09:46:46.508Z,38.14
2023-05-22T09:49:16.727Z,35.22
2023-05-22T09:51:48.540Z,35.39
2023-05-22T09:54:21.778Z,35.44
2023-05-22T09:56:51.765Z,35.72
2023-05-22T09:59:23.793Z,38.74
2023-05-22T10:01:53.852Z,38.17
2023-05-22T10:04:24.359Z,39.13
2023-05-22T10:06:55.606Z,37.01
2023-05-22T10:09:32.759Z,39.35
2023-05-22T10:12:05.963Z,36.08
2023-05-22T10:14:36.926Z,36.09
2023-05-22T10:17:07.321Z,37.03
2023-05-22T10:19:40.768Z,35.22
2023-05-22T10:22:14.992Z,36.08
2023-05-22T10:24:45.256Z,36.64
2023-05-22T10:27:13.705Z,39.76
2023-05-22T10:29:46.996Z,40.08
2023-05-22T10:32:25.427Z,38.05
2023-05-22T10:35:08.632Z,39.78
2023-05-22T10:37:50.925Z,40.67
2023-05-22T10:40:31.308Z,40.92
2023-05-22T10:43:01.315Z,40.32
2023-05-22T10:45:30.230Z,39.21
2023-05-22T10:48:04.814Z,40.59
2023-05-22T10:50:33.645Z,42.39
2023-05-22T10:53:21.960Z,41.49
2023-05-22T10:55:53.053Z,43.55
2023-05-22T10:58:28.242Z,43.23
2023-05-22T11:01:16.081Z,42.52
2023-05-22T11:03:58.827Z,39.10
2023-05-22T11:06:38.942Z,41.63
2023-05-22T11:09:21.832Z,43.32
2023-05-22T11:12:21.200Z,42.93
2023-05-22T11:14:52.180Z,42.39
2023-05-22T11:17:24.123Z,43.81
2023-05-22T11:20:00.607Z,44.41
2023-05-22T11:22:33.153Z,42.74
2023-05-22T11:25:01.889Z,44.81
2023-05-22T11:27:32.039Z,42.66
2023-05-22T11:30:01.392Z,43.81
2023-05-22T11:32:30.314Z,44.47
2023-05-22T11:34:59.231Z,43.12
2023-05-22T11:37:27.532Z,44.77
2023-05-22T11:39:58.221Z,44.82
2023-05-22T11:42:26.871Z,43.59
2023-05-22T11:44:57.217Z,43.36
2023-05-22T11:47:26.676Z,43.89
2023-05-22T11:49:55.418Z,44.03
2023-05-22T11:52:23.795Z,43.97
2023-05-22T11:54:53.719Z,44.10
2023-05-22T11:57:24.551Z,44.38
2023-05-22T11:59:52.915Z,44.17
2023-05-22T12:02:22.937Z,44.52
2023-05-22T12:04:55.682Z,44.62
2023-05-22T12:07:24.712Z,44.16
2023-05-22T12:09:57.041Z,46.42
2023-05-22T12:12:25.678Z,44.86
2023-05-22T12:14:54.453Z,44.29
2023-05-22T12:17:24.230Z,45.22
2023-05-22T12:19:54.372Z,44.79
2023-05-22T12:22:26.301Z,44.85
2023-05-22T12:24:55.114Z,46.33
2023-05-22T12:27:23.172Z,45.29
2023-05-22T12:29:53.089Z,43.77
2023-05-22T12:32:25.799Z,41.61
2023-05-22T12:34:54.281Z,40.20
2023-05-22T12:37:28.557Z,42.22
2023-05-22T12:39:58.162Z,43.65
2023-05-22T12:42:27.100Z,44.18
2023-05-22T12:44:56.880Z,39.33
2023-05-22T12:47:27.307Z,41.49
2023-05-22T12:49:55.785Z,42.65
2023-05-22T12:52:23.888Z,41.25
2023-05-22T12:54:52.258Z,41.09
2023-05-22T12:57:21.047Z,41.32
2023-05-22T12:59:49.683Z,42.33
2023-05-22T13:02:18.024Z,41.05
2023-05-22T13:04:47.657Z,40.91
2023-05-22T13:07:15.715Z,41.84
2023-05-22T13:09:44.181Z,40.09
2023-05-22T13:12:12.825Z,42.03
2023-05-22T13:14:41.410Z,43.22
2023-05-22T13:17:09.588Z,37.83
2023-05-22T13:19:38.499Z,40.41
2023-05-22T13:22:09.044Z,40.93
2023-05-22T13:24:37.088Z,39.76
2023-05-22T13:27:06.025Z,38.21
2023-05-22T13:29:34.474Z,38.36
2023-05-22T13:32:03.341Z,38.75
2023-05-22T13:34:32.500Z,38.51
2023-05-22T13:37:01.116Z,39.11
2023-05-22T13:39:30.911Z,39.77
2023-05-22T13:41:59.274Z,39.47
2023-05-22T13:44:27.676Z,40.85
2023-05-22T13:46:56.569Z,38.33
2023-05-22T13:49:25.263Z,36.99
2023-05-22T13:51:53.427Z,38.98
2023-05-22T13:54:21.961Z,40.77
2023-05-22T13:56:51.501Z,40.62
2023-05-22T13:59:20.176Z,41.21
2023-05-22T14:01:48.424Z,42.08
2023-05-22T14:04:17.164Z,40.55
2023-05-22T14:06:45.548Z,41.38
2023-05-22T14:09:14.011Z,41.55
2023-05-22T14:11:42.530Z,40.96
2023-05-22T14:14:12.607Z,42.09
2023-05-22T14:16:41.242Z,43.11
2023-05-22T14:19:09.810Z,43.27
2023-05-22T14:21:39.290Z,43.81
2023-05-22T14:24:08.503Z,41.99
2023-05-22T14:26:36.575Z,41.27
2023-05-22T14:29:05.204Z,44.43
2023-05-22T14:31:46.181Z,44.29
2023-05-22T14:34:15.893Z,42.43
2023-05-22T14:36:44.083Z,40.56
2023-05-22T14:39:12.483Z,41.97
2023-05-22T14:41:41.270Z,43.75
2023-05-22T14:44:09.605Z,43.13
2023-05-22T14:46:39.411Z,44.05
2023-05-22T14:49:07.837Z,42.31
2023-05-22T14:51:36.278Z,43.05
2023-05-22T14:54:05.092Z,44.92
2023-05-22T14:56:33.267Z,45.47
2023-05-22T14:59:01.581Z,44.41
2023-05-22T15:01:29.986Z,45.37
2023-05-22T15:03:59.706Z,45.10
2023-05-22T15:06:27.808Z,46.14
2023-05-22T15:08:56.065Z,46.33
2023-05-22T15:11:24.454Z,46.69
2023-05-22T15:13:54.664Z,46.09
2023-05-22T15:16:23.851Z,45.12
2023-05-22T15:18:52.394Z,46.33
2023-05-22T15:21:22.564Z,45.82
2023-05-22T15:23:51.367Z,46.56
2023-05-22T15:26:19.816Z,45.72
2023-05-22T15:28:47.832Z,45.84
2023-05-22T15:31:16.061Z,46.31
2023-05-22T15:33:44.495Z,46.87
2023-05-22T15:36:12.748Z,46.62
2023-05-22T15:38:42.703Z,46.55
2023-05-22T15:41:11.215Z,47.05
2023-05-22T15:43:39.741Z,46.67
2023-05-22T15:46:08.656Z,46.52
2023-05-22T15:48:38.095Z,48.09
2023-05-22T15:51:10.229Z,46.99
2023-05-22T15:53:39.410Z,46.71
2023-05-22T15:56:10.112Z,47.15
2023-05-22T15:58:38.305Z,47.91
2023-05-22T16:01:07.903Z,48.23
2023-05-22T16:03:36.806Z,48.09
2023-05-22T16:06:05.213Z,48.27
2023-05-22T16:08:33.686Z,49.62
2023-05-22T16:11:02.009Z,49.20
2023-05-22T16:13:33.333Z,48.16
2023-05-22T16:16:03.433Z,47.48
2023-05-22T16:18:32.248Z,46.56
2023-05-22T16:21:00.327Z,47.67
2023-05-22T16:23:29.103Z,47.37
2023-05-22T16:25:57.639Z,46.51
2023-05-22T16:28:25.890Z,46.27
2023-05-22T16:30:55.617Z,46.32
2023-05-22T16:33:24.309Z,45.71
2023-05-22T16:35:52.940Z,44.99
2023-05-22T16:38:21.572Z,45.92
2023-05-22T16:40:49.827Z,45.96
2023-05-22T16:43:18.046Z,45.76
2023-05-22T16:45:50.872Z,45.65
2023-05-22T16:48:20.879Z,46.02
2023-05-22T16:50:49.097Z,46.23
2023-05-22T16:53:17.988Z,45.87
2023-05-22T16:55:46.530Z,46.41
2023-05-22T16:58:14.841Z,46.65
2023-05-22T17:00:43.336Z,46.78
2023-05-22T17:03:12.160Z,44.60
2023-05-22T17:05:42.868Z,46.13
2023-05-22T17:08:11.532Z,45.56
2023-05-22T17:10:41.729Z,45.55
2023-05-22T17:13:12.528Z,46.31
2023-05-22T17:15:41.277Z,45.14
2023-05-22T17:18:09.637Z,45.26
2023-05-22T17:20:37.883Z,45.65
2023-05-22T17:23:08.143Z,47.90
2023-05-22T17:25:36.593Z,45.87
2023-05-22T17:28:05.664Z,46.83
2023-05-22T17:30:33.947Z,46.14
2023-05-22T17:33:03.753Z,46.96
2023-05-22T17:35:32.080Z,47.60
2023-05-22T17:38:00.425Z,47.67
2023-05-22T17:40:40.511Z,48.29
2023-05-22T17:43:12.665Z,47.96
2023-05-22T17:45:44.718Z,48.96
2023-05-22T17:48:14.793Z,49.58
2023-05-22T17:50:43.505Z,50.95
2023-05-22T17:53:13.831Z,51.11
2023-05-22T17:55:43.843Z,49.91
2023-05-22T17:58:12.773Z,51.92
2023-05-22T18:00:41.490Z,51.47
2023-05-22T18:03:10.004Z,50.65
2023-05-22T18:05:38.393Z,51.95
2023-05-22T18:08:06.739Z,52.31
2023-05-22T18:10:35.085Z,52.42
2023-05-22T18:13:04.774Z,52.39
2023-05-22T18:15:33.549Z,52.44
2023-05-22T18:18:02.766Z,53.27
2023-05-22T18:20:31.611Z,53.31
2023-05-22T18:23:00.129Z,52.47
2023-05-22T18:25:28.470Z,53.62
2023-05-22T18:27:56.759Z,54.04
2023-05-22T18:30:29.050Z,53.65
2023-05-22T18:32:57.809Z,55.21
2023-05-22T18:35:27.418Z,54.53
2023-05-22T18:37:55.816Z,54.38
2023-05-22T18:40:25.110Z,55.47
2023-05-22T18:42:54.385Z,55.50
2023-05-22T18:45:23.173Z,56.16
2023-05-22T18:47:53.531Z,57.31
2023-05-22T18:50:23.586Z,58.65
2023-05-22T18:52:52.102Z,60.35
2023-05-22T18:55:20.709Z,59.33
2023-05-22T18:57:49.096Z,57.65
2023-05-22T19:00:19.981Z,58.62
2023-05-22T19:02:48.428Z,57.54
2023-05-22T19:05:18.543Z,57.26
2023-05-22T19:07:47.067Z,58.03
2023-05-22T19:10:15.893Z,58.64
2023-05-22T19:12:44.250Z,59.77
2023-05-22T19:15:12.749Z,60.60
2023-05-22T19:17:41.129Z,59.76
2023-05-22T19:20:09.893Z,60.30
2023-05-22T19:22:40.113Z,59.72
2023-05-22T19:25:08.996Z,60.47
2023-05-22T19:27:39.085Z,59.41
2023-05-22T19:30:15.239Z,59.97
2023-05-22T19:32:43.795Z,60.50
2023-05-22T19:35:12.198Z,61.19
2023-05-22T19:37:41.940Z,61.73
2023-05-22T19:40:11.639Z,61.21
2023-05-22T19:42:40.256Z,64.82
2023-05-22T19:45:10.045Z,67.74
2023-05-22T19:47:38.785Z,69.61
2023-05-22T19:50:08.366Z,69.82
2023-05-22T19:53:03.477Z,69.68
2023-05-22T19:55:31.934Z,68.98
2023-05-22T19:58:00.220Z,68.54
2023-05-22T20:00:29.415Z,68.97
2023-05-22T20:02:57.873Z,68.79
2023-05-22T20:05:26.181Z,69.16
2023-05-22T20:07:54.636Z,70.08
2023-05-22T20:10:24.440Z,69.84
2023-05-22T20:12:54.369Z,70.17
2023-05-22T20:15:24.894Z,69.45
2023-05-22T20:17:54.687Z,69.80
2023-05-22T20:20:24.291Z,70.63
2023-05-22T20:22:53.891Z,71.17
2023-05-22T20:25:22.400Z,71.26
2023-05-22T20:27:52.105Z,71.52
2023-05-22T20:30:20.969Z,72.40
2023-05-22T20:32:49.691Z,72.80
2023-05-22T20:35:19.152Z,72.63
2023-05-22T20:37:47.706Z,73.07
2023-05-22T20:40:17.806Z,71.74
2023-05-22T20:42:47.604Z,72.37
2023-05-22T20:45:17.677Z,72.42
2023-05-22T20:47:45.876Z,73.18
2023-05-22T20:50:15.828Z,72.61
2023-05-22T20:52:46.240Z,72.22
2023-05-22T20:55:14.495Z,72.41
2023-05-22T20:57:42.674Z,73.26
2023-05-22T21:00:14.223Z,74.45
2023-05-22T21:02:43.854Z,75.37
2023-05-22T21:05:12.209Z,76.68
2023-05-22T21:07:40.444Z,76.06
2023-05-22T21:10:09.820Z,77.18
2023-05-22T21:12:39.124Z,77.01
2023-05-22T21:15:08.704Z,75.77
2023-05-22T21:17:37.193Z,76.65
2023-05-22T21:20:09.760Z,75.79
2023-05-22T21:22:37.828Z,76.26
2023-05-22T21:25:07.674Z,76.49
2023-05-22T21:27:35.793Z,77.79
2023-05-22T21:30:04.316Z,77.43
2023-05-22T21:32:32.875Z,77.88
2023-05-22T21:35:01.065Z,78.10
2023-05-22T21:37:30.894Z,77.23
2023-05-22T21:39:59.308Z,77.38
2023-05-22T21:42:34.811Z,76.69
2023-05-22T21:45:14.013Z,76.08
2023-05-22T21:47:42.246Z,76.92
2023-05-22T21:50:12.326Z,77.28
2023-05-22T21:52:41.795Z,77.20
2023-05-22T21:55:10.518Z,78.46
2023-05-22T21:57:38.542Z,79.90
2023-05-22T22:00:08.743Z,80.12
2023-05-22T22:02:36.790Z,79.94
2023-05-22T22:05:06.052Z,78.77
2023-05-22T22:07:34.304Z,79.23
2023-05-22T22:10:07.446Z,80.31
2023-05-22T22:12:35.572Z,80.75
2023-05-22T22:15:03.480Z,80.04
2023-05-22T22:17:34.918Z,80.14
2023-05-22T22:20:03.183Z,79.57
2023-05-22T22:22:31.479Z,79.71
2023-05-22T22:24:59.728Z,79.79
2023-05-22T22:27:29.217Z,79.99
2023-05-22T22:29:57.195Z,80.75
2023-05-22T22:32:50.103Z,81.58
2023-05-22T22:35:18.355Z,82.43
2023-05-22T22:37:46.838Z,83.17
2023-05-22T22:40:15.106Z,82.00
2023-05-22T22:42:44.558Z,81.03
2023-05-22T22:45:14.914Z,81.31
2023-05-22T22:47:43.643Z,80.54
2023-05-22T22:50:12.908Z,78.39
2023-05-22T22:52:45.381Z,75.28
2023-05-22T22:55:14.183Z,77.45
2023-05-22T22:57:43.402Z,76.77
2023-05-22T23:00:16.155Z,74.70
2023-05-22T23:02:45.017Z,72.75
2023-05-22T23:05:13.738Z,71.42
2023-05-22T23:07:41.859Z,71.08
2023-05-22T23:10:10.786Z,68.91
2023-05-22T23:12:39.127Z,69.76
2023-05-22T23:15:09.249Z,69.72
2023-05-22T23:17:39.247Z,69.84
2023-05-22T23:20:10.264Z,69.50
2023-05-22T23:22:41.992Z,70.24
2023-05-22T23:25:11.168Z,69.25
2023-05-22T23:27:39.585Z,68.89
2023-05-22T23:30:09.554Z,69.29
2023-05-22T23:32:39.278Z,69.59
2023-05-22T23:35:09.613Z,69.33
2023-05-22T23:37:37.764Z,69.42
2023-05-22T23:40:07.761Z,68.44
2023-05-22T23:42:36.469Z,68.60
2023-05-22T23:45:05.504Z,68.10
2023-05-22T23:47:33.981Z,68.50
2023-05-22T23:50:03.775Z,68.23
2023-05-22T23:52:32.153Z,67.54
2023-05-22T23:55:00.916Z,67.19
2023-05-22T23:57:29.135Z,66.68
2023-05-22T23:59:57.461Z,64.79
